sensor_id;sensor_type;location;lat;lon;timestamp;pressure;altitude;pressure_sealevel;temperature;humidity
45789;BME280;31492;54.856;26.318;2022-09-27T02:14:14;992.2;;;7;100
45789;BME280;31492;54.856;26.318;2022-09-27T02:19:24;991.1;;;8.9;100
45789;BME280;31492;54.856;26.318;2022-09-27T02:24:13;991.1;;;8.8;100
45789;BME280;31492;54.856;26.318;2022-09-27T02:29:10;991;;;8.9;100
45789;BME280;31492;54.856;26.318;2022-09-27T02:34:17;991;;;8.8;100
45789;BME280;31492;54.856;26.318;2022-09-27T02:39:12;991;;;8.9;100
45789;BME280;31492;54.856;26.318;2022-09-27T02:44:13;991;;;9;100
45789;BME280;31492;54.856;26.318;2022-09-27T02:49:48;991;;;8.9;100
45789;BME280;31492;54.856;26.318;2022-09-27T02:54:20;990.9;;;9;100
45789;BME280;31492;54.856;26.318;2022-09-27T02:59:13;990.9;;;9;100
45789;BME280;31492;54.856;26.318;2022-09-27T03:04:10;990.9;;;9.1;100
45789;BME280;31492;54.856;26.318;2022-09-27T03:09:24;990.9;;;9.1;100
45789;BME280;31492;54.856;26.318;2022-09-27T03:14:02;990.8;;;9;100
45789;BME280;31492;54.856;26.318;2022-09-27T03:19:07;990.8;;;9;100
45789;BME280;31492;54.856;26.318;2022-09-27T03:24:06;990.8;;;8.9;100
45789;BME280;31492;54.856;26.318;2022-09-27T03:28:56;990.8;;;8.9;100
45789;BME280;31492;54.856;26.318;2022-09-27T03:34:10;990.8;;;8.9;100
45789;BME280;31492;54.856;26.318;2022-09-27T03:39:04;990.7;;;8.9;100
45789;BME280;31492;54.856;26.318;2022-09-27T03:44:06;990.7;;;8.9;100
45789;BME280;31492;54.856;26.318;2022-09-27T03:49:10;990.7;;;8.9;100
45789;BME280;31492;54.856;26.318;2022-09-27T03:54:14;990.7;;;8.9;100
45789;BME280;31492;54.856;26.318;2022-09-27T03:59:10;990.7;;;8.9;100
45789;BME280;31492;54.856;26.318;2022-09-27T04:04:14;990.7;;;8.9;100
45789;BME280;31492;54.856;26.318;2022-09-27T04:09:12;990.7;;;8.9;100
45789;BME280;31492;54.856;26.318;2022-09-27T04:14:10;990.8;;;8.8;100
45789;BME280;31492;54.856;26.318;2022-09-27T04:19:07;990.8;;;8.8;100
45789;BME280;31492;54.856;26.318;2022-09-27T04:24:06;990.8;;;8.9;100
45789;BME280;31492;54.856;26.318;2022-09-27T04:29:14;990.8;;;8.8;100
45789;BME280;31492;54.856;26.318;2022-09-27T04:34:06;990.9;;;8.8;100
45789;BME280;31492;54.856;26.318;2022-09-27T04:39:05;990.9;;;8.7;100
45789;BME280;31492;54.856;26.318;2022-09-27T04:44:08;990.9;;;8.6;100
45789;BME280;31492;54.856;26.318;2022-09-27T04:49:10;990.9;;;8.5;100
45789;BME280;31492;54.856;26.318;2022-09-27T04:54:10;990.9;;;8.4;100
45789;BME280;31492;54.856;26.318;2022-09-27T04:59:07;990.8;;;8.4;100
45789;BME280;31492;54.856;26.318;2022-09-27T05:03:52;990.9;;;8.3;100
45789;BME280;31492;54.856;26.318;2022-09-27T05:09:08;990.8;;;8.3;100
45789;BME280;31492;54.856;26.318;2022-09-27T05:14:08;990.8;;;8.2;100
45789;BME280;31492;54.856;26.318;2022-09-27T05:19:14;990.8;;;8.3;100
45789;BME280;31492;54.856;26.318;2022-09-27T05:24:06;990.8;;;8.3;100
45789;BME280;31492;54.856;26.318;2022-09-27T05:29:10;990.8;;;8.4;100
45789;BME280;31492;54.856;26.318;2022-09-27T05:34:06;990.8;;;8.4;100
45789;BME280;31492;54.856;26.318;2022-09-27T05:39:06;990.8;;;8.5;100
45789;BME280;31492;54.856;26.318;2022-09-27T05:44:11;990.8;;;8.5;100
45789;BME280;31492;54.856;26.318;2022-09-27T05:49:08;990.9;;;8.5;100
45789;BME280;31492;54.856;26.318;2022-09-27T05:54:08;990.9;;;8.5;100
45789;BME280;31492;54.856;26.318;2022-09-27T05:59:06;990.9;;;8.4;100
45789;BME280;31492;54.856;26.318;2022-09-27T06:04:04;990.9;;;8.5;100
45789;BME280;31492;54.856;26.318;2022-09-27T06:09:10;990.9;;;8.5;100
45789;BME280;31492;54.856;26.318;2022-09-27T06:14:08;990.9;;;8.5;100
45789;BME280;31492;54.856;26.318;2022-09-27T06:19:04;990.9;;;8.5;100
45789;BME280;31492;54.856;26.318;2022-09-27T06:24:08;990.9;;;8.5;100
45789;BME280;31492;54.856;26.318;2022-09-27T06:29:04;990.9;;;8.5;100
45789;BME280;31492;54.856;26.318;2022-09-27T06:34:08;990.9;;;8.6;100
45789;BME280;31492;54.856;26.318;2022-09-27T06:39:06;991;;;8.7;100
45789;BME280;31492;54.856;26.318;2022-09-27T06:44:10;991;;;8.7;100
45789;BME280;31492;54.856;26.318;2022-09-27T06:49:04;991;;;8.8;100
45789;BME280;31492;54.856;26.318;2022-09-27T06:54:04;991;;;8.8;100
45789;BME280;31492;54.856;26.318;2022-09-27T06:59:08;991.1;;;8.9;100
45789;BME280;31492;54.856;26.318;2022-09-27T07:04:07;991.1;;;8.9;100
45789;BME280;31492;54.856;26.318;2022-09-27T07:09:02;991.1;;;9;100
45789;BME280;31492;54.856;26.318;2022-09-27T07:14:04;991.1;;;9;100
45789;BME280;31492;54.856;26.318;2022-09-27T07:19:06;991.1;;;9.1;100
45789;BME280;31492;54.856;26.318;2022-09-27T07:24:06;991.1;;;9;100
45789;BME280;31492;54.856;26.318;2022-09-27T07:29:08;991.1;;;9.1;100
45789;BME280;31492;54.856;26.318;2022-09-27T07:34:08;991;;;9.2;100
45789;BME280;31492;54.856;26.318;2022-09-27T07:39:05;991;;;9.4;100
45789;BME280;31492;54.856;26.318;2022-09-27T07:44:04;991.1;;;9.5;100
45789;BME280;31492;54.856;26.318;2022-09-27T07:49:06;991.1;;;9.5;100
45789;BME280;31492;54.856;26.318;2022-09-27T07:54:08;991.1;;;9.7;100
45789;BME280;31492;54.856;26.318;2022-09-27T07:59:06;991.1;;;10.1;100
45789;BME280;31492;54.856;26.318;2022-09-27T08:03:58;991.1;;;10.3;100
45789;BME280;31492;54.856;26.318;2022-09-27T08:09:06;991.1;;;10.6;100
45789;BME280;31492;54.856;26.318;2022-09-27T08:14:08;991;;;10.8;100
45789;BME280;31492;54.856;26.318;2022-09-27T08:19:06;990.9;;;11;100
45789;BME280;31492;54.856;26.318;2022-09-27T08:24:07;990.9;;;11.2;100
45789;BME280;31492;54.856;26.318;2022-09-27T08:29:02;990.9;;;11.3;100
45789;BME280;31492;54.856;26.318;2022-09-27T08:34:04;990.9;;;11.5;100
45789;BME280;31492;54.856;26.318;2022-09-27T08:39:00;990.9;;;11.7;100
45789;BME280;31492;54.856;26.318;2022-09-27T08:44:06;990.8;;;11.8;100
45789;BME280;31492;54.856;26.318;2022-09-27T08:49:13;990.8;;;11.9;100
45789;BME280;31492;54.856;26.318;2022-09-27T08:54:15;990.7;;;11.9;100
45789;BME280;31492;54.856;26.318;2022-09-27T08:59:12;990.7;;;12.1;100
45789;BME280;31492;54.856;26.318;2022-09-27T09:04:09;990.6;;;12.2;100
45789;BME280;31492;54.856;26.318;2022-09-27T09:09:13;990.6;;;12.4;100
45789;BME280;31492;54.856;26.318;2022-09-27T09:19:10;990.6;;;12.4;100
45789;BME280;31492;54.856;26.318;2022-09-27T09:24:10;990.5;;;12.6;100
45789;BME280;31492;54.856;26.318;2022-09-27T09:30:17;990.4;;;12.8;100
45789;BME280;31492;54.856;26.318;2022-09-27T09:34:09;990.4;;;13.1;100
45789;BME280;31492;54.856;26.318;2022-09-27T09:39:07;990.3;;;13.3;100
45789;BME280;31492;54.856;26.318;2022-09-27T09:44:04;990.3;;;13.4;100
45789;BME280;31492;54.856;26.318;2022-09-27T09:49:07;990.2;;;13.4;100
45789;BME280;31492;54.856;26.318;2022-09-27T09:55:15;990.1;;;14.3;100
45789;BME280;31492;54.856;26.318;2022-09-27T09:58:58;990;;;15.7;100
45789;BME280;31492;54.856;26.318;2022-09-27T10:04:40;989.9;;;16.9;100
45789;BME280;31492;54.856;26.318;2022-09-27T10:09:08;989.8;;;18.2;100
45789;BME280;31492;54.856;26.318;2022-09-27T10:14:10;989.7;;;18.7;100
45789;BME280;31492;54.856;26.318;2022-09-27T10:19:11;989.7;;;17.8;100
45789;BME280;31492;54.856;26.318;2022-09-27T10:24:12;989.6;;;18;100
45789;BME280;31492;54.856;26.318;2022-09-27T10:29:24;989.6;;;19;100
45789;BME280;31492;54.856;26.318;2022-09-27T10:34:03;989.6;;;18;100
45789;BME280;31492;54.856;26.318;2022-09-27T10:39:18;989.6;;;17.5;100
45789;BME280;31492;54.856;26.318;2022-09-27T10:44:22;989.6;;;17.1;100
45789;BME280;31492;54.856;26.318;2022-09-27T10:49:40;989.6;;;16.5;100
45789;BME280;31492;54.856;26.318;2022-09-27T10:54:25;989.6;;;16.4;100
45789;BME280;31492;54.856;26.318;2022-09-27T10:59:05;989.5;;;16.1;100
45789;BME280;31492;54.856;26.318;2022-09-27T11:04:03;989.5;;;15.7;100
45789;BME280;31492;54.856;26.318;2022-09-27T11:09:19;989.5;;;15.4;100
45789;BME280;31492;54.856;26.318;2022-09-27T11:14:22;989.5;;;15.7;100
45789;BME280;31492;54.856;26.318;2022-09-27T11:19:18;989.5;;;15.8;100
45789;BME280;31492;54.856;26.318;2022-09-27T11:24:14;989.5;;;15.6;100
45789;BME280;31492;54.856;26.318;2022-09-27T11:29:07;989.5;;;15.5;100
45789;BME280;31492;54.856;26.318;2022-09-27T11:34:12;989.5;;;15.4;100
45789;BME280;31492;54.856;26.318;2022-09-27T11:39:10;989.5;;;15.4;100
45789;BME280;31492;54.856;26.318;2022-09-27T11:44:16;989.5;;;15.3;100
45789;BME280;31492;54.856;26.318;2022-09-27T11:49:21;989.4;;;15.2;100
45789;BME280;31492;54.856;26.318;2022-09-27T11:54:05;989.3;;;15.9;100
45789;BME280;31492;54.856;26.318;2022-09-27T11:59:19;989.3;;;16.2;100
45789;BME280;31492;54.856;26.318;2022-09-27T12:04:15;989.3;;;15.9;100
45789;BME280;31492;54.856;26.318;2022-09-27T12:09:08;989.3;;;15.7;100
45789;BME280;31492;54.856;26.318;2022-09-27T12:14:05;989.3;;;15.6;100
45789;BME280;31492;54.856;26.318;2022-09-27T12:19:10;989.3;;;15.5;100
45789;BME280;31492;54.856;26.318;2022-09-27T12:24:08;989.2;;;16.2;100
45789;BME280;31492;54.856;26.318;2022-09-27T12:29:37;989.1;;;16.9;100
45789;BME280;31492;54.856;26.318;2022-09-27T12:34:14;989;;;17.5;100
45789;BME280;31492;54.856;26.318;2022-09-27T12:39:09;989;;;17.6;100
45789;BME280;31492;54.856;26.318;2022-09-27T12:44:07;989;;;17.3;100
45789;BME280;31492;54.856;26.318;2022-09-27T12:49:11;989;;;17;100
45789;BME280;31492;54.856;26.318;2022-09-27T12:54:20;988.9;;;17.1;100
45789;BME280;31492;54.856;26.318;2022-09-27T12:59:26;988.8;;;17.1;100
45789;BME280;31492;54.856;26.318;2022-09-27T13:04:07;988.8;;;17.2;100
45789;BME280;31492;54.856;26.318;2022-09-27T13:09:33;988.9;;;16.9;100
45789;BME280;31492;54.856;26.318;2022-09-27T13:14:26;988.8;;;16.9;100
45789;BME280;31492;54.856;26.318;2022-09-27T13:19:41;988.8;;;17;100
45789;BME280;31492;54.856;26.318;2022-09-27T13:24:24;988.8;;;17;100
45789;BME280;31492;54.856;26.318;2022-09-27T13:28:58;988.8;;;16.8;100
45789;BME280;31492;54.856;26.318;2022-09-27T13:34:12;988.9;;;16.6;100
45789;BME280;31492;54.856;26.318;2022-09-27T13:39:12;988.9;;;16.4;100
45789;BME280;31492;54.856;26.318;2022-09-27T13:44:08;988.8;;;16.3;100
45789;BME280;31492;54.856;26.318;2022-09-27T13:49:42;988.8;;;16.3;100
45789;BME280;31492;54.856;26.318;2022-09-27T13:54:03;988.8;;;16.3;100
45789;BME280;31492;54.856;26.318;2022-09-27T13:59:09;988.8;;;16.1;100
45789;BME280;31492;54.856;26.318;2022-09-27T14:04:17;988.8;;;15.8;100
45789;BME280;31492;54.856;26.318;2022-09-27T14:09:12;988.8;;;15.7;100
45789;BME280;31492;54.856;26.318;2022-09-27T14:13:49;988.9;;;15.7;100
45789;BME280;31492;54.856;26.318;2022-09-27T14:19:05;988.9;;;15.7;100
45789;BME280;31492;54.856;26.318;2022-09-27T14:29:17;988.9;;;15.5;100
45789;BME280;31492;54.856;26.318;2022-09-27T14:33:37;988.9;;;15.4;100
45789;BME280;31492;54.856;26.318;2022-09-27T14:39:11;989;;;15.3;100
45789;BME280;31492;54.856;26.318;2022-09-27T14:44:03;989;;;15.1;100
45789;BME280;31492;54.856;26.318;2022-09-27T14:49:20;989;;;14.9;100
45789;BME280;31492;54.856;26.318;2022-09-27T14:54:17;989;;;14.8;100
45789;BME280;31492;54.856;26.318;2022-09-27T14:59:13;989;;;14.6;100
45789;BME280;31492;54.856;26.318;2022-09-27T15:04:11;989;;;14.6;100
45789;BME280;31492;54.856;26.318;2022-09-27T15:09:09;988.9;;;14.6;100
45789;BME280;31492;54.856;26.318;2022-09-27T15:14:12;988.9;;;14.5;100
45789;BME280;31492;54.856;26.318;2022-09-27T15:19:15;988.9;;;14.3;100
45789;BME280;31492;54.856;26.318;2022-09-27T15:29:01;989;;;13.9;100
45789;BME280;31492;54.856;26.318;2022-09-27T15:34:05;989;;;13.8;100
45789;BME280;31492;54.856;26.318;2022-09-27T15:39:06;989;;;13.7;100
45789;BME280;31492;54.856;26.318;2022-09-27T15:44:07;989;;;13.5;100
45789;BME280;31492;54.856;26.318;2022-09-27T15:49:21;989;;;13.4;100
45789;BME280;31492;54.856;26.318;2022-09-27T15:54:05;989;;;13.3;100
45789;BME280;31492;54.856;26.318;2022-09-27T15:59:12;989;;;13.2;100
45789;BME280;31492;54.856;26.318;2022-09-27T16:04:07;989;;;13.1;100
45789;BME280;31492;54.856;26.318;2022-09-27T16:09:14;989;;;13;100
45789;BME280;31492;54.856;26.318;2022-09-27T16:14:05;989;;;12.9;100
45789;BME280;31492;54.856;26.318;2022-09-27T16:19:07;989;;;12.8;100
45789;BME280;31492;54.856;26.318;2022-09-27T16:24:07;989;;;12.8;100
45789;BME280;31492;54.856;26.318;2022-09-27T16:29:10;989;;;12.7;100
45789;BME280;31492;54.856;26.318;2022-09-27T16:34:07;988.9;;;12.7;100
45789;BME280;31492;54.856;26.318;2022-09-27T16:39:11;988.9;;;12.6;100
45789;BME280;31492;54.856;26.318;2022-09-27T16:44:12;988.8;;;12.5;100
45789;BME280;31492;54.856;26.318;2022-09-27T16:49:07;988.8;;;12.3;100
45789;BME280;31492;54.856;26.318;2022-09-27T16:54:03;988.8;;;12.2;100
45789;BME280;31492;54.856;26.318;2022-09-27T16:59:05;988.7;;;12.2;100
45789;BME280;31492;54.856;26.318;2022-09-27T17:04:00;988.7;;;12.1;100
45789;BME280;31492;54.856;26.318;2022-09-27T17:09:05;988.8;;;12;100
45789;BME280;31492;54.856;26.318;2022-09-27T17:14:03;988.8;;;12;100
45789;BME280;31492;54.856;26.318;2022-09-27T17:18:57;988.9;;;11.9;100
45789;BME280;31492;54.856;26.318;2022-09-27T17:24:05;988.9;;;11.8;100
45789;BME280;31492;54.856;26.318;2022-09-27T17:29:05;988.9;;;11.7;100
45789;BME280;31492;54.856;26.318;2022-09-27T17:34:07;989;;;11.7;100
45789;BME280;31492;54.856;26.318;2022-09-27T17:39:05;989;;;11.7;100
45789;BME280;31492;54.856;26.318;2022-09-27T17:44:09;989;;;11.8;100
45789;BME280;31492;54.856;26.318;2022-09-27T17:49:08;988.9;;;11.8;100
45789;BME280;31492;54.856;26.318;2022-09-27T17:54:09;988.9;;;11.8;100
45789;BME280;31492;54.856;26.318;2022-09-27T17:59:05;989;;;11.7;100
45789;BME280;31492;54.856;26.318;2022-09-27T18:03:55;988.9;;;11.7;100
45789;BME280;31492;54.856;26.318;2022-09-27T18:09:05;988.9;;;11.7;100
45789;BME280;31492;54.856;26.318;2022-09-27T18:14:03;988.9;;;11.6;100
45789;BME280;31492;54.856;26.318;2022-09-27T18:19:01;988.9;;;11.4;100
45789;BME280;31492;54.856;26.318;2022-09-27T18:24:07;988.9;;;11.4;100
45789;BME280;31492;54.856;26.318;2022-09-27T18:29:06;988.9;;;11.4;100
45789;BME280;31492;54.856;26.318;2022-09-27T18:34:03;988.8;;;11.4;100
45789;BME280;31492;54.856;26.318;2022-09-27T18:39:11;988.8;;;11.4;100
45789;BME280;31492;54.856;26.318;2022-09-27T18:44:05;988.8;;;11.4;100
45789;BME280;31492;54.856;26.318;2022-09-27T18:49:06;988.8;;;11.3;100
45789;BME280;31492;54.856;26.318;2022-09-27T18:54:09;988.8;;;11.2;100
45789;BME280;31492;54.856;26.318;2022-09-27T18:59:09;988.9;;;11.2;100
45789;BME280;31492;54.856;26.318;2022-09-27T19:04:06;988.8;;;11.1;100
45789;BME280;31492;54.856;26.318;2022-09-27T19:09:09;988.8;;;11.1;100
45789;BME280;31492;54.856;26.318;2022-09-27T19:14:13;988.8;;;11.2;100
45789;BME280;31492;54.856;26.318;2022-09-27T19:19:07;988.8;;;11.2;100
45789;BME280;31492;54.856;26.318;2022-09-27T19:24:05;988.7;;;11.2;100
45789;BME280;31492;54.856;26.318;2022-09-27T19:29:07;988.8;;;11.2;100
45789;BME280;31492;54.856;26.318;2022-09-27T19:34:09;988.8;;;11.2;100
45789;BME280;31492;54.856;26.318;2022-09-27T19:39:05;988.8;;;11.2;100
45789;BME280;31492;54.856;26.318;2022-09-27T19:44:03;988.8;;;11.1;100
45789;BME280;31492;54.856;26.318;2022-09-27T19:49:05;988.8;;;11.1;100
45789;BME280;31492;54.856;26.318;2022-09-27T19:54:08;988.7;;;11.1;100
45789;BME280;31492;54.856;26.318;2022-09-27T19:59:07;988.7;;;11.1;100
45789;BME280;31492;54.856;26.318;2022-09-27T20:04:05;988.6;;;11;100
45789;BME280;31492;54.856;26.318;2022-09-27T20:09:07;988.6;;;11;100
45789;BME280;31492;54.856;26.318;2022-09-27T20:14:07;988.5;;;10.9;100
45789;BME280;31492;54.856;26.318;2022-09-27T20:19:07;988.5;;;10.8;100
45789;BME280;31492;54.856;26.318;2022-09-27T20:24:09;988.5;;;10.7;100
45789;BME280;31492;54.856;26.318;2022-09-27T20:29:11;988.5;;;10.6;100
45789;BME280;31492;54.856;26.318;2022-09-27T20:33:37;988.5;;;10.5;100
45789;BME280;31492;54.856;26.318;2022-09-27T20:39:04;988.5;;;10.5;100
45789;BME280;31492;54.856;26.318;2022-09-27T20:44:12;988.6;;;10.4;100
45789;BME280;31492;54.856;26.318;2022-09-27T20:49:10;988.6;;;10.4;100
45789;BME280;31492;54.856;26.318;2022-09-27T20:54:08;988.7;;;10.4;100
45789;BME280;31492;54.856;26.318;2022-09-27T20:59:15;988.7;;;10.3;100
45789;BME280;31492;54.856;26.318;2022-09-27T21:04:03;988.7;;;10.2;100
45789;BME280;31492;54.856;26.318;2022-09-27T21:09:05;988.7;;;10.2;100
45789;BME280;31492;54.856;26.318;2022-09-27T21:14:05;988.6;;;10.2;100
45789;BME280;31492;54.856;26.318;2022-09-27T21:19:05;988.6;;;10.3;100
45789;BME280;31492;54.856;26.318;2022-09-27T21:23:57;988.6;;;10.3;100
45789;BME280;31492;54.856;26.318;2022-09-27T21:29:06;988.6;;;10.3;100
45789;BME280;31492;54.856;26.318;2022-09-27T21:34:07;988.6;;;10.1;100
45789;BME280;31492;54.856;26.318;2022-09-27T21:39:07;988.7;;;10;100
45789;BME280;31492;54.856;26.318;2022-09-27T21:44:08;988.6;;;10;100
45789;BME280;31492;54.856;26.318;2022-09-27T21:49:11;988.7;;;9.9;100
45789;BME280;31492;54.856;26.318;2022-09-27T21:53:38;988.7;;;9.8;100
45789;BME280;31492;54.856;26.318;2022-09-27T21:59:03;988.7;;;9.8;100
45789;BME280;31492;54.856;26.318;2022-09-27T22:04:09;988.7;;;9.8;100
45789;BME280;31492;54.856;26.318;2022-09-27T22:09:06;988.8;;;9.8;100
45789;BME280;31492;54.856;26.318;2022-09-27T22:14:05;988.8;;;9.8;100
45789;BME280;31492;54.856;26.318;2022-09-27T22:19:05;988.8;;;9.9;100
45789;BME280;31492;54.856;26.318;2022-09-27T22:24:10;988.8;;;9.9;100
45789;BME280;31492;54.856;26.318;2022-09-27T22:29:07;988.8;;;9.9;100
45789;BME280;31492;54.856;26.318;2022-09-27T22:34:06;988.7;;;9.9;100
45789;BME280;31492;54.856;26.318;2022-09-27T22:39:09;988.7;;;9.8;100
